Flight Track Log - Related Links

Times and Time Zones

All times are in EDT time to prevent confusion due to time zone crossing. See the N6189Q flight status page for this flight to view local times or setup timezone preferences in your user account.

Time Position Orientation Groundspeed Altitude Reporting Facility
EDT Latitude Longitude Course Direction KTS MPH feet Rate Location/Type
Mon 08:56:00 AM 42.0047 -70.4235 248° West  Level FlightAware Approximate
Mon 08:57:00 AM 41.9943 -70.4581 248° West  Level FlightAware Approximate
Mon 08:58:00 AM 41.9839 -70.4927 248° West  Level FlightAware Approximate
Mon 08:59:00 AM 41.9735 -70.5273 248° West  Level FlightAware Approximate
Mon 09:00:00 AM 41.9628 -70.5617 246° West  Level FlightAware Approximate
Mon 09:01:00 AM 41.9514 -70.5958 246° West  Level FlightAware Approximate
Mon 09:02:00 AM 41.9414 -70.6305 249° West  Level FlightAware Approximate
Mon 09:03:00 AM 41.9315 -70.6654 249° West  Level FlightAware Approximate
Mon 09:04:00 AM 41.9216 -70.7003 249° West  Level FlightAware Approximate
Mon 09:05:00 AM 41.9117 -70.7351 249° West  Level FlightAware Approximate
Mon 09:06:00 AM 41.9018 -70.7699 249° West  Level FlightAware Approximate
Mon 09:06:02 AM 41.8578 -70.7119 249° West 111 128 8,000  Level Boston Center
Mon 09:07:00 AM 41.8919 -70.8047 249° West  Level FlightAware Approximate
Mon 09:07:15 AM 41.8503 -70.7594 258° West 111 128 8,000  Level Boston Center
Mon 09:08:00 AM 41.8820 -70.8396 249° West  Level FlightAware Approximate
Mon 09:08:10 AM 41.8425 -70.7986 255° West 112 129 8,000  Level Boston Center
Mon 09:09:00 AM 41.8721 -70.8744 249° West  Level FlightAware Approximate
Mon 09:09:11 AM 41.8325 -70.8381 251° West 111 128 8,000  Level Boston Center
Mon 09:10:00 AM 41.8621 -70.9091 249° West  Level FlightAware Approximate
Mon 09:10:12 AM 41.8269 -70.8800 260° West 111 128 7,900  Level Boston Center
Mon 09:11:00 AM 41.8522 -70.9439 249° West  Level FlightAware Approximate
Mon 09:11:13 AM 41.8192 -70.9219 256° West 111 128 8,000  Level Boston Center
Mon 09:12:14 AM 41.8114 -70.9611 255° West 111 128 8,000  Level Boston Center
Mon 09:13:14 AM 41.8036 -71.0031 256° West 108 124 8,000 -52 Level Boston Center
Mon 09:14:09 AM 41.7997 -71.0367 261° West 109 125 7,900  Descending Boston Center
Mon 09:15:04 AM 41.7900 -71.0758 252° West 110 127 8,000 52 Climbing Boston Center
Mon 09:16:05 AM 41.7819 -71.1122 253° West 110 127 8,000 -49 Level Boston Center
Mon 09:17:06 AM 41.7742 -71.1539 256° West 107 123 7,900 -50 Descending Boston Center
Mon 09:18:06 AM 41.7683 -71.1931 259° West 107 123 7,900  Level Boston Center
Mon 09:19:07 AM 41.7625 -71.2294 258° West 105 121 7,900 49 Level Boston Center
Mon 09:20:08 AM 41.7544 -71.2714 256° West 106 122 8,000 47 Climbing Boston Center
Mon 09:21:15 AM 41.7467 -71.3103 255° West 106 122 8,000  Level Boston Center
Mon 09:22:16 AM 41.7386 -71.3494 255° West 105 121 8,000  Level Boston Center
Mon 09:23:23 AM 41.7308 -71.3914 256° West 104 120 8,000 -50 Level Boston Center
Mon 09:24:17 AM 41.7228 -71.4278 253° West 105 121 7,900  Descending Boston Center
Mon 09:25:18 AM 41.7189 -71.4639 262° West 104 120 8,000 47 Climbing Boston Center
Mon 09:26:25 AM 41.7172 -71.5056 267° West 103 119 8,000  Level Boston Center
Mon 09:27:20 AM 41.7153 -71.5389 266° West 103 119 8,000  Level Boston Center
Mon 09:28:27 AM 41.7136 -71.5808 267° West 116 133 8,000  Level Boston Center
Mon 09:29:28 AM 41.7097 -71.6253 263° West 105 121 8,000  Level Boston Center
Mon 09:30:28 AM 41.7058 -71.6644 262° West 105 121 8,000 -47 Level Boston Center
Mon 09:31:35 AM 41.7039 -71.7061 266° West 106 122 7,900 -47 Descending Boston Center
Mon 09:32:36 AM 41.7000 -71.7450 262° West 105 121 7,900 49 Level Boston Center
Mon 09:33:37 AM 41.6983 -71.7839 267° West 103 119 8,000 52 Climbing Boston Center
Mon 09:34:32 AM 41.6964 -71.8200 266° West 105 121 8,000 54 Level Boston Center
Mon 09:35:29 AM 41.6944 -71.8564 266° West 103 119 8,100 51 Climbing Boston Center
Mon 09:36:30 AM 41.6925 -71.8981 266° West 102 117 8,100 -49 Level Boston Center
Mon 09:37:31 AM 41.6886 -71.9369 262° West 102 117 8,000 -344 Descending Boston Center
Mon 09:38:32 AM 41.6742 -71.9703 240° Southwest 131 151 7,400 -590 Descending Boston Center
Mon 09:39:33 AM 41.6786 -72.0119 278° West 116 133 6,800 -595 Descending Boston Center
Mon 09:40:33 AM 41.6786 -72.0536 270° West 110 127 6,200 -347 Descending Boston Center
Mon 09:41:34 AM 41.6767 -72.0928 266° West 108 124 6,100 -98 Descending Boston Center
Mon 09:42:35 AM 41.6725 -72.1289 261° West 100 115 6,000 -50 Descending Boston Center
Mon 09:43:35 AM 41.6706 -72.1650 266° West 99 114 6,000  Level Boston Center
Mon 09:44:36 AM 41.6667 -72.2011 262° West 99 114 6,000  Level Boston Center
Mon 09:45:37 AM 41.6667 -72.2400 270° West 99 114 6,000  Level Boston Center
Mon 09:46:38 AM 41.6606 -72.2761 257° West 97 112 6,000  Level Boston Center
Mon 09:47:39 AM 41.6583 -72.3122 265° West 99 114 6,000  Level Boston Center
Mon 09:48:39 AM 41.6542 -72.3483 261° West 98 113 6,000  Level Boston Center
Mon 09:49:40 AM 41.6542 -72.3872 270° West 98 113 6,000  Level Boston Center
Mon 09:50:41 AM 41.6500 -72.4261 262° West 99 114 6,000  Level Boston Center
Mon 09:51:42 AM 41.6481 -72.4622 266° West 102 117 6,000  Level Boston Center
Mon 09:52:43 AM 41.6439 -72.5011 262° West 99 114 6,000  Level Boston Center
Mon 09:53:43 AM 41.6333 -72.5344 247° West 102 117 6,000  Level Boston Center
Mon 09:54:44 AM 41.6208 -72.5678 243° Southwest 101 116 6,000  Level Boston Center
Mon 09:55:45 AM 41.6103 -72.6039 249° West 102 117 6,000  Level Boston Center
Mon 09:56:46 AM 41.5958 -72.6400 242° Southwest 104 120 6,000  Level Boston Center
Mon 09:57:47 AM 41.5853 -72.6761 249° West 104 120 6,000  Level Boston Center
Mon 09:58:47 AM 41.5747 -72.7119 249° West 107 123 6,000  Level Boston Center
Mon 09:59:48 AM 41.5622 -72.7508 247° West 107 123 6,000  Level Boston Center
Mon 10:02:18 AM 41.5333 -72.8333 245° Southwest 117 135 6,000  Level New York TRACON
Mon 10:03:18 AM 41.5167 -72.8667 236° Southwest 115 132 6,000  Level New York TRACON
Mon 10:04:24 AM 41.5000 -72.9167 246° West 114 131 6,000  Level New York TRACON
Mon 10:05:18 AM 41.5000 -72.9500 270° West 112 129 6,000  Level New York TRACON
Mon 10:06:18 AM 41.4833 -72.9833 236° Southwest 114 131 6,000  Level New York TRACON
Mon 10:07:24 AM 41.4667 -73.0333 246° West 114 131 6,000  Level New York TRACON
Mon 10:08:24 AM 41.4500 -73.0667 236° Southwest 112 129 6,000  Level New York TRACON
Mon 10:09:24 AM 41.4333 -73.1000 236° Southwest 116 133 6,000  Level New York TRACON
Mon 10:10:18 AM 41.4333 -73.1333 270° West 112 129 6,000  Level New York TRACON
Mon 10:11:30 AM 41.4167 -73.1833 246° West 113 130 6,000  Level New York TRACON
Mon 10:12:30 AM 41.4000 -73.2167 236° Southwest 111 128 6,000  Level New York TRACON
Mon 10:13:30 AM 41.3833 -73.2500 236° Southwest 113 130 6,000  Level New York TRACON
Mon 10:14:30 AM 41.3833 -73.3000 270° West 115 132 6,000  Level New York TRACON
Mon 10:15:30 AM 41.3667 -73.3333 236° Southwest 116 133 6,000  Level New York TRACON
Mon 10:16:30 AM 41.3500 -73.3667 236° Southwest 113 130 6,000  Level New York TRACON
Mon 10:17:30 AM 41.3333 -73.4167 246° West 110 127 6,000  Level New York TRACON
Mon 10:18:30 AM 41.3333 -73.4500 270° West 114 131 6,000  Level New York TRACON
Mon 10:19:30 AM 41.3167 -73.4833 236° Southwest 115 132 6,000  Level New York TRACON
Mon 10:20:30 AM 41.3000 -73.5167 236° Southwest 111 128 6,000 -300 Level New York TRACON
Mon 10:21:30 AM 41.2833 -73.5667 246° West 126 145 5,400 -619 Descending New York TRACON
Mon 10:22:36 AM 41.2833 -73.6167 270° West 127 146 4,700 -600 Descending New York TRACON
Mon 10:23:30 AM 41.2667 -73.6500 236° Southwest 125 144 4,200 -350 Descending New York TRACON
Mon 10:24:36 AM 41.2667 -73.7000 270° West 114 131 4,000 -100 Descending New York TRACON
Mon 10:25:30 AM 41.2667 -73.7333 270° West 113 130 4,000  Level New York TRACON
Mon 10:26:30 AM 41.2667 -73.7833 270° West 114 131 4,000  Level New York TRACON
Mon 10:27:30 AM 41.2500 -73.8167 236° Southwest 118 136 4,000  Level New York TRACON
Mon 10:28:30 AM 41.2500 -73.8667 270° West 115 132 4,000  Level New York TRACON
Mon 10:29:30 AM 41.2500 -73.9000 270° West 115 132 4,000  Level New York TRACON
Mon 10:30:30 AM 41.2500 -73.9500 270° West 117 135 4,000  Level New York TRACON
Mon 10:31:30 AM 41.2500 -73.9833 270° West 117 135 4,000  Level New York TRACON
Mon 10:32:30 AM 41.2333 -74.0333 246° West 124 143 4,000  Level New York TRACON
Mon 10:33:36 AM 41.2000 -74.0667 217° Southwest 126 145 4,000  Level New York TRACON
Mon 10:34:30 AM 41.1833 -74.1000 236° Southwest 128 147 4,000 -100 Level New York TRACON
Mon 10:35:36 AM 41.1500 -74.1333 217° Southwest 131 151 3,800 -381 Descending New York TRACON
Mon 10:36:36 AM 41.1167 -74.1500 201° Southwest 140 161 3,200 -400 Descending New York TRACON
Mon 10:37:36 AM 41.0833 -74.1667 201° Southwest 134 154 3,000 -100 Descending New York TRACON
Mon 10:38:36 AM 41.0500 -74.1833 201° Southwest 129 148 3,000 -300 Level New York TRACON
Mon 10:39:36 AM 41.0167 -74.2000 201° Southwest 137 158 2,400 -500 Descending New York TRACON
Mon 10:40:36 AM 40.9833 -74.2167 201° Southwest 122 140 2,000 -200 Descending New York TRACON
Mon 10:41:36 AM 40.9500 -74.2333 201° Southwest 115 132 2,000 -150 Level New York TRACON
Mon 10:42:36 AM 40.9167 -74.2500 201° Southwest 118 136 1,700 -350 Descending New York TRACON
Mon 10:43:36 AM 40.9000 -74.2667 217° Southwest 107 123 1,300 -211 Descending New York TRACON
Mon 10:44:30 AM 40.8833 -74.2833 217° Southwest 95 109 1,300  Level New York TRACON
Mon 10:47:00 AM 40.8752 -74.2814 66° East  Level Estimated
Mon 10:54:00 AM 40.8752 -74.2814 66° East  Level Estimated
Mon 10:55:00 AM 40.8752 -74.2814 66° East  Level Estimated
Mon 10:56:00 AM 40.8752 -74.2814 66° East  Level Estimated

Login

Don't have an account? Register now (free) for customized features, flight alerts, and more!